createdAt,value
2018-06-21T00:00:02.406Z,93.17
2018-06-21T00:03:07.158Z,93.82
2018-06-21T00:06:11.686Z,93.80
2018-06-21T00:09:15.964Z,93.65
2018-06-21T00:12:20.341Z,93.27
2018-06-21T00:15:24.636Z,93.75
2018-06-21T00:18:28.873Z,93.52
2018-06-21T00:21:33.133Z,92.84
2018-06-21T00:24:37.423Z,92.82
2018-06-21T00:27:41.681Z,92.45
2018-06-21T00:30:46.002Z,92.13
2018-06-21T00:33:50.285Z,91.16
2018-06-21T00:36:54.614Z,91.31
2018-06-21T00:39:58.901Z,91.29
2018-06-21T00:43:03.237Z,91.22
2018-06-21T00:46:07.649Z,91.36
2018-06-21T00:49:11.981Z,91.14
2018-06-21T00:52:16.253Z,90.64
2018-06-21T00:56:29.909Z,90.52
2018-06-21T00:59:34.177Z,90.00
2018-06-21T01:02:38.505Z,89.84
2018-06-21T01:05:42.761Z,89.77
2018-06-21T01:08:47.119Z,89.96
2018-06-21T01:11:51.466Z,90.20
2018-06-21T01:14:55.853Z,89.31
2018-06-21T01:18:00.128Z,88.88
2018-06-21T01:21:04.844Z,88.03
2018-06-21T01:24:09.282Z,87.37
2018-06-21T01:27:13.665Z,86.79
2018-06-21T01:30:17.954Z,85.58
2018-06-21T01:33:22.296Z,84.69
2018-06-21T01:36:26.557Z,85.43
2018-06-21T01:39:30.916Z,85.30
2018-06-21T01:42:35.268Z,85.19
2018-06-21T01:45:40.966Z,84.30
2018-06-21T01:48:46.200Z,84.99
2018-06-21T01:51:51.343Z,84.64
2018-06-21T01:54:57.301Z,83.36
2018-06-21T01:58:02.619Z,83.40
2018-06-21T02:01:06.949Z,82.60
2018-06-21T02:04:11.369Z,82.82
2018-06-21T02:07:15.872Z,83.08
2018-06-21T02:10:20.237Z,82.42
2018-06-21T02:13:24.777Z,83.12
2018-06-21T02:16:29.101Z,83.15
2018-06-21T02:19:33.496Z,83.66
2018-06-21T02:22:37.800Z,83.78
2018-06-21T02:25:42.158Z,83.57
2018-06-21T02:28:47.894Z,82.96
2018-06-21T02:31:52.203Z,82.44
2018-06-21T02:34:56.990Z,82.17
2018-06-21T02:38:01.370Z,83.06
2018-06-21T02:41:05.875Z,82.53
2018-06-21T02:44:10.781Z,82.43
2018-06-21T02:47:15.141Z,82.60
2018-06-21T02:50:20.435Z,82.68
2018-06-21T02:53:24.789Z,82.43
2018-06-21T02:56:29.107Z,82.52
2018-06-21T02:59:33.471Z,82.70
2018-06-21T03:02:37.749Z,82.60
2018-06-21T03:05:42.042Z,83.05
2018-06-21T03:08:46.691Z,82.67
2018-06-21T03:11:51.006Z,82.45
2018-06-21T03:14:55.645Z,81.61
2018-06-21T03:18:00.016Z,81.99
2018-06-21T03:21:04.361Z,81.68
2018-06-21T03:24:08.687Z,81.57
2018-06-21T03:27:13.235Z,82.14
2018-06-21T03:30:17.606Z,81.14
2018-06-21T03:33:21.915Z,80.76
2018-06-21T03:36:26.168Z,80.89
2018-06-21T03:39:30.896Z,81.36
2018-06-21T03:42:35.264Z,81.27
2018-06-21T03:45:39.641Z,81.75
2018-06-21T03:48:44.010Z,81.16
2018-06-21T03:51:48.520Z,82.54
2018-06-21T03:54:53.449Z,82.23
2018-06-21T03:57:57.863Z,82.52
2018-06-21T04:01:02.181Z,81.35
2018-06-21T04:04:06.481Z,82.34
2018-06-21T04:07:19.585Z,82.30
2018-06-21T04:10:23.879Z,82.46
2018-06-21T04:13:28.178Z,82.15
2018-06-21T04:16:32.437Z,82.74
2018-06-21T04:19:37.093Z,82.66
2018-06-21T04:22:41.420Z,83.12
2018-06-21T04:25:45.761Z,82.58
2018-06-21T04:28:50.091Z,82.30
2018-06-21T04:31:54.401Z,81.93
2018-06-21T04:34:58.682Z,81.37
2018-06-21T04:38:03.041Z,81.45
2018-06-21T04:41:07.290Z,81.40
2018-06-21T04:44:11.720Z,79.88
2018-06-21T04:47:16.006Z,80.33
2018-06-21T04:50:20.426Z,80.42
2018-06-21T04:53:24.799Z,80.17
2018-06-21T04:56:29.098Z,80.25
2018-06-21T04:59:33.408Z,79.88
2018-06-21T05:02:37.688Z,79.12
2018-06-21T05:05:41.707Z,79.13
2018-06-21T05:08:46.009Z,78.46
2018-06-21T05:11:50.243Z,78.41
2018-06-21T05:14:54.533Z,78.80
2018-06-21T05:17:58.848Z,78.91
2018-06-21T05:21:03.223Z,78.54
2018-06-21T05:24:07.663Z,78.38
2018-06-21T05:27:12.279Z,78.75
2018-06-21T05:30:16.641Z,79.25
2018-06-21T05:33:21.004Z,78.02
2018-06-21T05:36:25.313Z,77.86
2018-06-21T05:39:29.604Z,78.24
2018-06-21T05:42:33.912Z,77.80
2018-06-21T05:45:38.260Z,77.86
2018-06-21T05:48:42.585Z,77.90
2018-06-21T05:51:47.197Z,77.62
2018-06-21T05:54:51.502Z,77.83
2018-06-21T05:57:55.852Z,76.70
2018-06-21T06:01:00.136Z,77.69
2018-06-21T06:04:04.458Z,77.56
2018-06-21T06:07:08.774Z,77.20
2018-06-21T06:10:13.128Z,77.38
2018-06-21T06:13:17.410Z,76.66
2018-06-21T06:16:21.924Z,76.76
2018-06-21T06:19:26.366Z,76.26
2018-06-21T06:22:30.879Z,76.43
2018-06-21T06:25:35.347Z,77.04
2018-06-21T06:28:39.683Z,77.54
2018-06-21T06:31:44.071Z,77.03
2018-06-21T06:34:48.575Z,77.15
2018-06-21T06:37:52.804Z,77.12
2018-06-21T06:40:57.241Z,75.97
2018-06-21T06:44:01.533Z,76.75
2018-06-21T06:47:06.092Z,76.26
2018-06-21T06:50:10.377Z,75.98
2018-06-21T06:53:14.664Z,76.23
2018-06-21T06:56:19.030Z,75.67
2018-06-21T06:59:23.361Z,76.14
2018-06-21T07:02:27.668Z,75.70
2018-06-21T07:05:31.993Z,76.38
2018-06-21T07:08:36.280Z,76.45
2018-06-21T07:11:40.645Z,75.67
2018-06-21T07:14:44.934Z,75.79
2018-06-21T07:17:49.220Z,76.89
2018-06-21T07:20:53.578Z,78.11
2018-06-21T07:23:57.900Z,79.38
2018-06-21T07:27:02.268Z,79.60
2018-06-21T07:30:07.438Z,79.67
2018-06-21T07:33:11.773Z,80.07
2018-06-21T07:36:16.149Z,81.44
2018-06-21T07:39:20.618Z,79.94
2018-06-21T07:42:24.790Z,80.23
2018-06-21T07:45:29.174Z,80.74
2018-06-21T07:48:33.477Z,83.33
2018-06-21T07:51:37.813Z,83.51
2018-06-21T07:54:42.135Z,85.42
2018-06-21T07:57:46.451Z,86.75
2018-06-21T08:00:51.274Z,87.75
2018-06-21T08:03:55.807Z,87.23
2018-06-21T08:07:00.131Z,87.61
2018-06-21T08:10:04.466Z,88.78
2018-06-21T08:13:09.734Z,88.40
2018-06-21T08:16:14.792Z,88.71
2018-06-21T08:19:19.167Z,89.37
2018-06-21T08:22:24.640Z,89.68
2018-06-21T08:25:29.551Z,88.97
2018-06-21T08:28:34.484Z,88.58
2018-06-21T08:31:42.698Z,86.70
2018-06-21T08:34:49.087Z,87.48
2018-06-21T08:38:03.740Z,87.01
2018-06-21T08:41:08.850Z,87.81
2018-06-21T08:44:15.566Z,88.25
2018-06-21T08:47:21.772Z,88.42
2018-06-21T08:50:28.873Z,89.72
2018-06-21T08:53:34.526Z,89.93
2018-06-21T08:56:39.674Z,89.64
2018-06-21T08:59:47.751Z,89.54
2018-06-21T09:02:53.113Z,90.36
2018-06-21T09:06:01.705Z,89.67
2018-06-21T09:09:12.107Z,88.33
2018-06-21T09:12:20.738Z,88.28
2018-06-21T09:15:36.777Z,87.81
2018-06-21T09:18:50.136Z,87.57
2018-06-21T09:22:00.878Z,88.18
2018-06-21T09:25:06.377Z,85.63
2018-06-21T09:28:12.994Z,84.80
2018-06-21T09:31:23.337Z,85.82
2018-06-21T09:34:34.641Z,87.09
2018-06-21T09:37:51.988Z,85.56
2018-06-21T09:41:07.925Z,85.85
2018-06-21T09:44:24.373Z,85.61
2018-06-21T09:47:38.441Z,86.80
2018-06-21T09:50:51.202Z,85.45
2018-06-21T09:54:03.462Z,84.38
2018-06-21T09:57:16.165Z,84.25
2018-06-21T10:00:32.191Z,82.28
2018-06-21T10:07:02.346Z,83.49
2018-06-21T10:10:20.247Z,81.08
2018-06-21T10:13:26.099Z,82.29
2018-06-21T10:16:33.333Z,82.01
2018-06-21T10:19:44.521Z,82.14
2018-06-21T10:22:59.332Z,80.99
2018-06-21T10:26:10.941Z,80.39
2018-06-21T10:29:24.998Z,81.62
2018-06-21T10:32:46.959Z,82.83
2018-06-21T10:36:03.010Z,82.89
2018-06-21T10:39:20.324Z,84.11
2018-06-21T10:42:33.013Z,84.13
2018-06-21T10:45:44.915Z,85.18
2018-06-21T10:48:53.674Z,86.34
2018-06-21T10:52:02.531Z,87.23
2018-06-21T10:58:33.640Z,88.24
2018-06-21T11:01:50.140Z,88.36
2018-06-21T11:05:02.716Z,89.62
2018-06-21T11:08:17.656Z,90.34
2018-06-21T11:11:31.683Z,89.30
2018-06-21T11:18:02.299Z,90.40
2018-06-21T11:21:12.559Z,91.46
2018-06-21T11:24:21.454Z,91.01
2018-06-21T11:27:29.653Z,90.54
2018-06-21T11:30:42.149Z,90.99
2018-06-21T11:34:01.139Z,91.34
2018-06-21T11:37:21.940Z,90.92
2018-06-21T11:40:37.043Z,90.51
2018-06-21T11:47:30.814Z,91.73
2018-06-21T11:50:44.925Z,91.51
2018-06-21T11:53:58.596Z,91.73
2018-06-21T11:57:21.418Z,92.24
2018-06-21T12:00:32.561Z,92.55
2018-06-21T12:03:54.852Z,92.69
2018-06-21T12:07:06.970Z,92.39
2018-06-21T12:10:17.814Z,92.59
2018-06-21T12:13:36.853Z,91.26
2018-06-21T12:16:56.854Z,91.19
2018-06-21T12:20:21.456Z,91.52
2018-06-21T12:23:34.160Z,89.91
2018-06-21T12:26:47.402Z,90.61
2018-06-21T12:30:11.545Z,91.01
2018-06-21T12:33:25.611Z,89.57
2018-06-21T12:36:40.071Z,91.28
2018-06-21T12:43:12.295Z,91.82
2018-06-21T12:46:36.080Z,92.29
2018-06-21T12:49:50.814Z,92.56
2018-06-21T12:53:03.159Z,92.31
2018-06-21T12:56:17.879Z,91.91
2018-06-21T12:59:34.532Z,91.21
2018-06-21T13:02:47.013Z,90.79
2018-06-21T13:05:51.430Z,89.01
2018-06-21T13:09:12.822Z,88.12
2018-06-21T13:12:35.606Z,89.40
2018-06-21T13:15:40.464Z,88.87
2018-06-21T13:18:44.969Z,90.72
2018-06-21T13:21:49.566Z,91.59
2018-06-21T13:24:54.166Z,91.27
2018-06-21T13:27:59.004Z,88.93
2018-06-21T13:31:03.368Z,89.19
2018-06-21T13:34:07.754Z,90.13
2018-06-21T13:37:12.210Z,86.28
2018-06-21T13:40:16.819Z,87.45
2018-06-21T13:43:20.995Z,83.22
2018-06-21T13:46:25.351Z,80.37
2018-06-21T13:49:29.858Z,78.52
2018-06-21T13:52:34.191Z,78.85
2018-06-21T13:55:38.505Z,77.49
2018-06-21T13:58:42.852Z,76.75
2018-06-21T14:01:47.276Z,74.21
2018-06-21T14:04:51.567Z,75.07
2018-06-21T14:07:56.061Z,74.67
2018-06-21T14:11:00.238Z,75.66
2018-06-21T14:14:04.668Z,77.72
2018-06-21T14:17:08.972Z,74.27
2018-06-21T14:20:13.390Z,71.02
2018-06-21T14:23:17.704Z,70.38
2018-06-21T14:26:22.026Z,67.42
2018-06-21T14:29:26.430Z,68.48
2018-06-21T14:32:30.764Z,66.96
2018-06-21T14:35:35.155Z,68.19
2018-06-21T14:38:39.759Z,70.95
2018-06-21T14:41:44.138Z,72.37
2018-06-21T14:44:48.470Z,72.60
2018-06-21T14:47:59.207Z,72.65
2018-06-21T14:51:03.735Z,73.36
2018-06-21T14:54:08.135Z,73.02
2018-06-21T14:57:12.553Z,72.20
2018-06-21T15:00:16.844Z,70.72
2018-06-21T15:03:21.253Z,70.63
2018-06-21T15:06:25.620Z,69.44
2018-06-21T15:09:29.970Z,69.19
2018-06-21T15:12:34.274Z,69.20
2018-06-21T15:15:38.698Z,67.35
2018-06-21T15:18:42.989Z,68.23
2018-06-21T15:21:47.345Z,66.99
2018-06-21T15:24:51.657Z,66.26
2018-06-21T15:27:56.019Z,61.56
2018-06-21T15:31:00.401Z,61.25
2018-06-21T15:34:04.509Z,64.98
2018-06-21T15:37:08.979Z,67.66
2018-06-21T15:40:13.349Z,65.42
2018-06-21T15:43:17.779Z,63.48
2018-06-21T15:46:22.171Z,63.60
2018-06-21T15:49:26.584Z,61.76
2018-06-21T15:52:31.279Z,59.68
2018-06-21T15:55:35.649Z,62.79
2018-06-21T15:58:40.353Z,64.28
2018-06-21T16:01:44.705Z,68.76
2018-06-21T16:04:49.037Z,69.31
2018-06-21T16:07:53.457Z,68.22
2018-06-21T16:10:58.229Z,67.64
2018-06-21T16:14:02.621Z,70.76
2018-06-21T16:17:07.210Z,70.75
2018-06-21T16:20:11.586Z,69.43
2018-06-21T16:23:16.149Z,66.66
2018-06-21T16:26:20.478Z,64.71
2018-06-21T16:29:24.905Z,67.02
2018-06-21T16:32:29.443Z,69.89
2018-06-21T16:35:33.933Z,71.59
2018-06-21T16:38:38.623Z,66.68
2018-06-21T16:41:43.251Z,58.77
2018-06-21T16:44:47.636Z,57.25
2018-06-21T16:47:52.173Z,59.82
2018-06-21T16:50:56.928Z,58.96
2018-06-21T16:54:01.309Z,56.81
2018-06-21T16:57:05.947Z,55.50
2018-06-21T17:00:10.303Z,54.62
2018-06-21T17:03:14.892Z,54.12
2018-06-21T17:06:19.597Z,56.74
2018-06-21T17:09:24.401Z,53.40
2018-06-21T17:12:29.329Z,54.50
2018-06-21T17:15:33.425Z,54.75
2018-06-21T17:18:37.976Z,56.74
2018-06-21T17:21:42.423Z,59.17
2018-06-21T17:24:46.833Z,60.56
2018-06-21T17:27:51.242Z,59.69
2018-06-21T17:30:55.620Z,60.57
2018-06-21T17:34:00.115Z,60.34
2018-06-21T17:37:04.546Z,60.54
2018-06-21T17:40:08.865Z,60.68
2018-06-21T17:43:13.353Z,60.35
2018-06-21T17:46:17.890Z,60.89
2018-06-21T17:49:23.688Z,61.27
2018-06-21T17:52:28.923Z,60.94
2018-06-21T17:55:33.348Z,61.99
2018-06-21T17:58:37.798Z,63.70
2018-06-21T18:01:42.379Z,64.56
2018-06-21T18:04:47.604Z,65.43
2018-06-21T18:07:52.074Z,66.07
2018-06-21T18:10:56.556Z,66.53
2018-06-21T18:14:01.026Z,67.70
2018-06-21T18:17:05.409Z,68.75
2018-06-21T18:20:09.749Z,69.33
2018-06-21T18:23:14.111Z,70.82
2018-06-21T18:26:18.488Z,70.93
2018-06-21T18:29:23.215Z,70.71
2018-06-21T18:32:29.151Z,70.90
2018-06-21T18:35:34.595Z,68.61
2018-06-21T18:38:39.013Z,69.85
2018-06-21T18:41:44.494Z,70.13
2018-06-21T18:44:50.894Z,69.65
2018-06-21T18:47:57.556Z,67.86
2018-06-21T18:51:04.114Z,68.38
2018-06-21T18:54:10.347Z,68.95
2018-06-21T18:57:22.145Z,69.12
2018-06-21T19:00:34.602Z,69.57
2018-06-21T19:03:45.316Z,69.30
2018-06-21T19:06:54.869Z,69.88
2018-06-21T19:10:08.829Z,71.44
2018-06-21T19:13:18.899Z,73.29
2018-06-21T19:16:26.041Z,74.15
2018-06-21T19:19:36.923Z,74.83
2018-06-21T19:22:44.895Z,75.48
2018-06-21T19:25:55.864Z,76.12
2018-06-21T19:29:06.177Z,76.31
2018-06-21T19:32:21.211Z,76.51
2018-06-21T19:35:33.782Z,77.14
2018-06-21T19:38:43.046Z,76.05
2018-06-21T19:41:49.194Z,76.47
2018-06-21T19:44:53.733Z,76.46
2018-06-21T19:47:58.700Z,76.32
2018-06-21T19:51:08.672Z,77.01
2018-06-21T19:54:23.362Z,77.22
2018-06-21T19:57:31.190Z,77.61
2018-06-21T20:00:41.345Z,77.28
2018-06-21T20:04:18.660Z,77.52
2018-06-21T20:07:30.642Z,78.32
2018-06-21T20:10:53.636Z,78.62
2018-06-21T20:14:03.481Z,78.84
2018-06-21T20:17:19.287Z,79.28
2018-06-21T20:20:40.078Z,79.54
2018-06-21T20:24:04.180Z,80.40
2018-06-21T20:27:19.574Z,81.41
2018-06-21T20:30:34.976Z,81.60
2018-06-21T20:33:53.148Z,81.66
2018-06-21T20:37:13.171Z,82.02
2018-06-21T20:40:23.668Z,81.16
2018-06-21T20:43:37.117Z,81.48
2018-06-21T20:46:55.199Z,81.62
2018-06-21T20:50:06.654Z,81.36
2018-06-21T20:53:20.014Z,81.50
2018-06-21T20:56:55.249Z,82.21
2018-06-21T21:00:06.480Z,82.16
2018-06-21T21:06:48.796Z,82.69
2018-06-21T21:10:05.198Z,83.30
2018-06-21T21:13:21.641Z,83.32
2018-06-21T21:16:34.703Z,83.53
2018-06-21T21:19:50.882Z,83.57
2018-06-21T21:22:59.480Z,84.28
2018-06-21T21:26:37.046Z,84.77
2018-06-21T21:29:56.232Z,84.84
2018-06-21T21:33:23.214Z,85.06
2018-06-21T21:36:39.174Z,84.99
2018-06-21T21:39:59.219Z,85.46
2018-06-21T21:43:29.253Z,85.06
2018-06-21T21:46:44.500Z,85.43
2018-06-21T21:49:54.883Z,85.65
2018-06-21T21:53:15.546Z,85.88
2018-06-21T21:56:32.212Z,86.22
2018-06-21T21:59:36.509Z,86.35
2018-06-21T22:02:40.948Z,86.08
2018-06-21T22:05:45.539Z,85.84
2018-06-21T22:08:49.924Z,84.95
2018-06-21T22:11:54.288Z,85.37
2018-06-21T22:14:58.676Z,84.83
2018-06-21T22:18:03.020Z,83.88
2018-06-21T22:21:07.419Z,83.89
2018-06-21T22:24:11.759Z,83.06
2018-06-21T22:27:16.090Z,85.40
2018-06-21T22:30:20.381Z,86.67
2018-06-21T22:33:24.662Z,88.02
2018-06-21T22:36:29.183Z,87.89
2018-06-21T22:39:33.490Z,88.42
2018-06-21T22:42:41.235Z,89.02
2018-06-21T22:45:54.180Z,89.39
2018-06-21T22:49:11.299Z,89.95
2018-06-21T22:52:32.296Z,89.96
2018-06-21T22:59:28.750Z,90.46
2018-06-21T23:02:43.830Z,90.49
2018-06-21T23:06:08.963Z,90.86
2018-06-21T23:09:28.471Z,91.10
2018-06-21T23:12:44.507Z,90.67
2018-06-21T23:16:01.494Z,89.86
2018-06-21T23:23:18.008Z,89.87
2018-06-21T23:26:51.844Z,90.10
2018-06-21T23:30:13.509Z,89.65
2018-06-21T23:33:35.541Z,89.81
2018-06-21T23:36:51.548Z,89.52
2018-06-21T23:40:01.593Z,89.59
2018-06-21T23:43:13.532Z,89.34
2018-06-21T23:46:24.133Z,89.52
2018-06-21T23:49:40.429Z,89.14
2018-06-21T23:57:15.137Z,88.85
